Time,TemperatureF,DewpointF,PressureIn,WindDirection,WindDirectionDegrees,WindSpeedMPH,WindSpeedGustMPH,Humidity,HourlyPrecipIn,Conditions,Clouds,dailyrainin,SoftwareType,DateUTC
2014-01-11 00:02:00,20.5,18.5,30.42,NW,311,7.0,8.0,92,0.00,,---,0.00,VWS V14.01,2014-01-11 07:02:00,
2014-01-11 00:07:00,20.5,18.5,30.42,NW,313,8.0,8.0,92,0.00,,---,0.00,VWS V14.01,2014-01-11 07:07:00,
2014-01-11 00:12:00,20.6,18.6,30.42,NW,313,7.0,7.0,92,0.00,,---,0.00,VWS V14.01,2014-01-11 07:12:00,
2014-01-11 00:17:00,20.6,18.6,30.41,NW,313,7.0,7.0,92,0.00,,---,0.00,VWS V14.01,2014-01-11 07:17:00,
2014-01-11 00:22:00,20.6,18.6,30.42,NW,313,7.0,8.0,92,0.00,,---,0.00,VWS V14.01,2014-01-11 07:22:00,
2014-01-11 00:27:00,20.5,18.5,30.42,NW,313,10.0,10.0,92,0.00,,---,0.00,VWS V14.01,2014-01-11 07:27:00,
2014-01-11 00:32:00,20.6,18.6,30.42,NW,319,10.0,10.0,92,0.00,,---,0.00,VWS V14.01,2014-01-11 07:32:00,
2014-01-11 00:37:00,20.6,18.6,30.42,NW,319,9.0,9.0,92,0.00,,---,0.00,VWS V14.01,2014-01-11 07:37:00,
2014-01-11 00:42:00,20.7,18.8,30.42,NW,314,9.0,11.0,92,0.00,,---,0.00,VWS V14.01,2014-01-11 07:42:00,
2014-01-11 00:48:00,20.8,18.9,30.42,NW,311,9.0,9.0,92,0.00,,---,0.00,VWS V14.01,2014-01-11 07:48:00,
2014-01-11 00:53:00,20.9,19.0,30.42,NW,312,9.0,9.0,92,0.00,,---,0.00,VWS V14.01,2014-01-11 07:53:00,
2014-01-11 00:58:00,20.8,18.6,30.42,NW,313,8.0,9.0,91,0.00,,---,0.00,VWS V14.01,2014-01-11 07:58:00,
2014-01-11 01:03:00,20.6,18.4,30.42,NW,317,9.0,10.0,91,0.00,,---,0.00,VWS V14.01,2014-01-11 08:03:00,
2014-01-11 01:08:00,20.6,18.4,30.43,NNW,327,11.0,11.0,91,0.00,,---,0.00,VWS V14.01,2014-01-11 08:08:00,
2014-01-11 01:13:00,20.6,18.4,30.42,NNW,327,8.0,9.0,91,0.00,,---,0.00,VWS V14.01,2014-01-11 08:13:00,
2014-01-11 01:18:00,20.6,18.4,30.43,NW,321,9.0,9.0,91,0.00,,---,0.00,VWS V14.01,2014-01-11 08:18:00,
2014-01-11 01:23:00,20.7,18.5,30.43,NW,322,9.0,11.0,91,0.00,,---,0.00,VWS V14.01,2014-01-11 08:23:00,
2014-01-11 01:28:00,20.8,18.6,30.44,NW,322,8.0,8.0,91,0.00,,---,0.00,VWS V14.01,2014-01-11 08:28:00,
2014-01-11 01:33:00,20.8,18.3,30.44,NW,322,9.0,9.0,90,0.00,,---,0.00,VWS V14.01,2014-01-11 08:33:00,
2014-01-11 01:38:00,20.6,17.9,30.44,NW,322,8.0,8.0,89,0.00,,---,0.00,VWS V14.01,2014-01-11 08:38:00,
2014-01-11 01:43:00,20.5,18.0,30.44,NW,322,6.0,7.0,90,0.00,,---,0.00,VWS V14.01,2014-01-11 08:43:00,
2014-01-11 01:48:00,20.4,17.7,30.45,NW,322,8.0,8.0,89,0.00,,---,0.00,VWS V14.01,2014-01-11 08:48:00,
2014-01-11 01:53:00,20.3,17.6,30.45,NW,322,8.0,9.0,89,0.00,,---,0.00,VWS V14.01,2014-01-11 08:53:00,
2014-01-11 01:58:00,20.5,17.8,30.45,NW,320,6.0,9.0,89,0.00,,---,0.00,VWS V14.01,2014-01-11 08:58:00,
2014-01-11 02:03:00,20.7,18.0,30.45,NW,323,8.0,9.0,89,0.00,,---,0.00,VWS V14.01,2014-01-11 09:03:00,
2014-01-11 02:08:00,20.2,17.0,30.46,NNW,327,9.0,12.0,87,0.00,,---,0.00,VWS V14.01,2014-01-11 09:08:00,
2014-01-11 02:13:00,20.2,17.2,30.46,NNW,328,9.0,10.0,88,0.00,,---,0.00,VWS V14.01,2014-01-11 09:13:00,
2014-01-11 02:18:00,20.2,17.2,30.46,NNW,329,8.0,9.0,88,0.00,,---,0.00,VWS V14.01,2014-01-11 09:18:00,
2014-01-11 02:23:00,20.1,17.1,30.47,NNW,329,7.0,7.0,88,0.00,,---,0.00,VWS V14.01,2014-01-11 09:23:00,
2014-01-11 02:28:00,20.1,17.1,30.47,NNW,329,7.0,7.0,88,0.00,,---,0.00,VWS V14.01,2014-01-11 09:28:00,
2014-01-11 02:33:00,19.8,16.6,30.47,NNW,329,5.0,5.0,87,0.00,,---,0.00,VWS V14.01,2014-01-11 09:33:00,
2014-01-11 02:38:00,19.3,16.1,30.47,NNW,329,4.0,4.0,87,0.00,,---,0.00,VWS V14.01,2014-01-11 09:38:00,
2014-01-11 02:43:00,18.6,15.1,30.47,NNW,329,6.0,6.0,86,0.00,,---,0.00,VWS V14.01,2014-01-11 09:43:00,
2014-01-11 02:48:00,19.2,16.2,30.48,NNW,329,5.0,10.0,88,0.00,,---,0.00,VWS V14.01,2014-01-11 09:48:00,
2014-01-11 02:53:00,19.1,15.6,30.47,NNW,329,3.0,5.0,86,0.00,,---,0.00,VWS V14.01,2014-01-11 09:53:00,
2014-01-11 02:58:00,19.1,15.9,30.48,NNW,329,6.0,6.0,87,0.00,,---,0.00,VWS V14.01,2014-01-11 09:58:00,
2014-01-11 03:03:00,19.0,15.5,30.49,NNW,329,6.0,6.0,86,0.00,,---,0.00,VWS V14.01,2014-01-11 10:03:00,
2014-01-11 03:08:00,19.4,16.2,30.48,NW,326,3.0,3.0,87,0.00,,---,0.00,VWS V14.01,2014-01-11 10:08:00,
2014-01-11 03:13:00,19.5,16.3,30.49,NW,326,0.0,1.0,87,0.00,,---,0.00,VWS V14.01,2014-01-11 10:13:00,
2014-01-11 03:18:00,19.6,16.4,30.49,NW,326,1.0,2.0,87,0.00,,---,0.00,VWS V14.01,2014-01-11 10:18:00,
2014-01-11 03:23:00,19.8,16.6,30.49,NW,326,2.0,4.0,87,0.00,,---,0.00,VWS V14.01,2014-01-11 10:23:00,
2014-01-11 03:28:00,19.3,15.3,30.49,NNW,327,6.0,7.0,84,0.00,,---,0.00,VWS V14.01,2014-01-11 10:28:00,
2014-01-11 03:33:00,19.5,16.0,30.49,NNW,327,6.0,6.0,86,0.00,,---,0.00,VWS V14.01,2014-01-11 10:33:00,
2014-01-11 03:39:00,19.9,16.4,30.49,NNW,327,5.0,5.0,86,0.00,,---,0.00,VWS V14.01,2014-01-11 10:39:00,
2014-01-11 03:44:00,19.9,16.1,30.50,NNW,327,5.0,5.0,85,0.00,,---,0.00,VWS V14.01,2014-01-11 10:44:00,
2014-01-11 03:49:00,20.0,16.5,30.49,NNW,327,5.0,5.0,86,0.00,,---,0.00,VWS V14.01,2014-01-11 10:49:00,
2014-01-11 03:54:00,20.7,16.9,30.49,NNW,327,4.0,4.0,85,0.00,,---,0.00,VWS V14.01,2014-01-11 10:54:00,
2014-01-11 03:59:00,20.9,16.8,30.49,NNW,327,3.0,5.0,84,0.00,,---,0.00,VWS V14.01,2014-01-11 10:59:00,
2014-01-11 04:04:00,20.7,16.6,30.49,NNW,327,3.0,5.0,84,0.00,,---,0.00,VWS V14.01,2014-01-11 11:04:00,
2014-01-11 04:09:00,20.5,16.4,30.48,NNW,327,4.0,4.0,84,0.00,,---,0.00,VWS V14.01,2014-01-11 11:09:00,
2014-01-11 04:14:00,20.2,16.1,30.48,NNW,327,3.0,3.0,84,0.00,,---,0.00,VWS V14.01,2014-01-11 11:14:00,
2014-01-11 04:19:00,19.9,15.6,30.48,NNW,327,6.0,6.0,83,0.00,,---,0.00,VWS V14.01,2014-01-11 11:19:00,
2014-01-11 04:24:00,20.1,16.0,30.47,NNW,327,7.0,7.0,84,0.00,,---,0.00,VWS V14.01,2014-01-11 11:24:00,
2014-01-11 04:29:00,20.9,17.1,30.48,NNW,327,7.0,8.0,85,0.00,,---,0.00,VWS V14.01,2014-01-11 11:29:00,
2014-01-11 04:34:00,21.0,16.4,30.48,NNW,327,6.0,6.0,82,0.00,,---,0.00,VWS V14.01,2014-01-11 11:34:00,
2014-01-11 04:39:00,20.5,15.9,30.49,NNW,327,5.0,5.0,82,0.00,,---,0.00,VWS V14.01,2014-01-11 11:39:00,
2014-01-11 04:44:00,20.6,16.3,30.48,NNW,327,4.0,4.0,83,0.00,,---,0.00,VWS V14.01,2014-01-11 11:44:00,
2014-01-11 04:49:00,20.8,16.2,30.48,NNW,327,6.0,7.0,82,0.00,,---,0.00,VWS V14.01,2014-01-11 11:49:00,
2014-01-11 04:54:00,21.4,17.0,30.49,NNW,327,6.0,7.0,83,0.00,,---,0.00,VWS V14.01,2014-01-11 11:54:00,
2014-01-11 04:59:00,21.8,16.9,30.49,NNW,327,4.0,6.0,81,0.00,,---,0.00,VWS V14.01,2014-01-11 11:59:00,
2014-01-11 05:04:00,22.0,16.8,30.49,NNW,327,4.0,5.0,80,0.00,,---,0.00,VWS V14.01,2014-01-11 12:04:00,
2014-01-11 05:09:00,21.9,16.7,30.48,NNW,327,2.0,4.0,80,0.00,,---,0.00,VWS V14.01,2014-01-11 12:09:00,
2014-01-11 05:14:00,22.0,17.4,30.48,NNW,327,7.0,9.0,82,0.00,,---,0.00,VWS V14.01,2014-01-11 12:14:00,
2014-01-11 05:19:00,22.4,17.5,30.49,NNW,327,5.0,8.0,81,0.00,,---,0.00,VWS V14.01,2014-01-11 12:19:00,
2014-01-11 05:24:00,22.5,17.0,30.49,NNW,327,6.0,7.0,79,0.00,,---,0.00,VWS V14.01,2014-01-11 12:24:00,
2014-01-11 05:29:00,21.9,15.5,30.49,NNW,327,6.0,6.0,76,0.00,,---,0.00,VWS V14.01,2014-01-11 12:29:00,
2014-01-11 05:34:00,21.1,15.9,30.49,NNW,327,8.0,8.0,80,0.00,,---,0.00,VWS V14.01,2014-01-11 12:34:00,
2014-01-11 05:39:00,20.4,14.9,30.49,NNW,327,10.0,10.0,79,0.00,,---,0.00,VWS V14.01,2014-01-11 12:39:00,
2014-01-11 05:44:00,19.9,14.7,30.48,NNW,329,11.0,12.0,80,0.00,,---,0.00,VWS V14.01,2014-01-11 12:44:00,
2014-01-11 05:49:00,18.8,13.4,30.48,NNW,329,10.0,10.0,79,0.00,,---,0.00,VWS V14.01,2014-01-11 12:49:00,
2014-01-11 05:54:00,18.6,14.3,30.49,NNW,329,4.0,6.0,83,0.00,,---,0.00,VWS V14.01,2014-01-11 12:54:00,
2014-01-11 05:59:00,19.3,15.8,30.49,NNW,329,4.0,4.0,86,0.00,,---,0.00,VWS V14.01,2014-01-11 12:59:00,
2014-01-11 06:04:00,20.0,16.8,30.49,NNW,329,0.0,2.0,87,0.00,,---,0.00,VWS V14.01,2014-01-11 13:04:00,
2014-01-11 06:09:00,20.5,17.2,30.49,NNW,329,4.0,4.0,87,0.00,,---,0.00,VWS V14.01,2014-01-11 13:09:00,
2014-01-11 06:14:00,20.7,17.2,30.49,NNW,329,0.0,1.0,86,0.00,,---,0.00,VWS V14.01,2014-01-11 13:14:00,
2014-01-11 06:19:00,20.1,15.2,30.49,NNW,329,5.0,5.0,81,0.00,,---,0.00,VWS V14.01,2014-01-11 13:19:00,
2014-01-11 06:24:00,19.3,14.4,30.49,NNW,329,2.0,2.0,81,0.00,,---,0.00,VWS V14.01,2014-01-11 13:24:00,
2014-01-11 06:30:00,18.1,12.7,30.49,NNW,329,5.0,5.0,79,0.00,,---,0.00,VWS V14.01,2014-01-11 13:30:00,
2014-01-11 06:35:00,17.9,13.6,30.48,NNW,329,2.0,3.0,83,0.00,,---,0.00,VWS V14.01,2014-01-11 13:35:00,
2014-01-11 06:40:00,17.7,13.4,30.48,NNW,329,7.0,7.0,83,0.00,,---,0.00,VWS V14.01,2014-01-11 13:40:00,
2014-01-11 06:45:00,17.4,13.1,30.48,NNW,329,6.0,6.0,83,0.00,,---,0.00,VWS V14.01,2014-01-11 13:45:00,
2014-01-11 06:50:00,17.5,13.8,30.48,NNW,329,3.0,3.0,85,0.00,,---,0.00,VWS V14.01,2014-01-11 13:50:00,
2014-01-11 06:55:00,17.7,14.2,30.48,NNW,329,4.0,5.0,86,0.00,,---,0.00,VWS V14.01,2014-01-11 13:55:00,
2014-01-11 07:00:00,17.6,13.6,30.48,NNW,329,0.0,0.0,84,0.00,,---,0.00,VWS V14.01,2014-01-11 14:00:00,
2014-01-11 07:05:00,16.6,11.5,30.49,NNW,329,1.0,4.0,80,0.00,,---,0.00,VWS V14.01,2014-01-11 14:05:00,
2014-01-11 07:10:00,15.3,10.5,30.48,NNW,329,7.0,7.0,81,0.00,,---,0.00,VWS V14.01,2014-01-11 14:10:00,
2014-01-11 07:15:00,14.1,10.2,30.48,NNW,329,3.0,3.0,84,0.00,,---,0.00,VWS V14.01,2014-01-11 14:15:00,
2014-01-11 07:20:00,13.4,9.5,30.48,NNW,329,5.0,6.0,84,0.00,,---,0.00,VWS V14.01,2014-01-11 14:20:00,
2014-01-11 07:25:00,13.6,10.2,30.48,NNW,330,11.0,12.0,86,0.00,,---,0.00,VWS V14.01,2014-01-11 14:25:00,
2014-01-11 07:30:00,14.4,11.5,30.48,NNW,331,5.0,8.0,88,0.00,,---,0.00,VWS V14.01,2014-01-11 14:30:00,
2014-01-11 07:35:00,14.8,11.4,30.48,NNW,331,5.0,5.0,86,0.00,,---,0.00,VWS V14.01,2014-01-11 14:35:00,
2014-01-11 07:40:00,14.6,11.2,30.49,NNW,331,0.0,0.0,86,0.00,,---,0.00,VWS V14.01,2014-01-11 14:40:00,
2014-01-11 07:45:00,13.8,9.9,30.49,NNW,331,8.0,10.0,84,0.00,,---,0.00,VWS V14.01,2014-01-11 14:45:00,
2014-01-11 07:50:00,13.1,9.4,30.50,NNW,331,0.0,1.0,85,0.00,,---,0.00,VWS V14.01,2014-01-11 14:50:00,
2014-01-11 07:55:00,12.9,9.2,30.51,NNW,331,0.0,0.0,85,0.00,,---,0.00,VWS V14.01,2014-01-11 14:55:00,
2014-01-11 08:00:00,12.7,9.3,30.51,NNW,331,6.0,6.0,86,0.00,,---,0.00,VWS V14.01,2014-01-11 15:00:00,
2014-01-11 08:05:00,12.5,8.9,30.50,NNW,331,8.0,8.0,85,0.00,,---,0.00,VWS V14.01,2014-01-11 15:05:00,
2014-01-11 08:10:00,12.6,9.2,30.50,NNW,331,0.0,0.0,86,0.00,,---,0.00,VWS V14.01,2014-01-11 15:10:00,
2014-01-11 08:15:00,12.5,9.1,30.50,NNW,331,1.0,3.0,86,0.00,,---,0.00,VWS V14.01,2014-01-11 15:15:00,
2014-01-11 08:20:00,12.6,9.5,30.50,NNW,331,0.0,0.0,87,0.00,,---,0.00,VWS V14.01,2014-01-11 15:20:00,
2014-01-11 08:25:00,12.3,9.2,30.51,NNW,331,2.0,2.0,87,0.00,,---,0.00,VWS V14.01,2014-01-11 15:25:00,
2014-01-11 08:30:00,13.0,10.1,30.51,NNW,331,4.0,4.0,88,0.00,,---,0.00,VWS V14.01,2014-01-11 15:30:00,
2014-01-11 08:35:00,12.3,7.9,30.51,NNW,331,6.0,6.0,82,0.00,,---,0.00,VWS V14.01,2014-01-11 15:35:00,
2014-01-11 08:40:00,12.0,8.4,30.52,NNW,331,3.0,5.0,85,0.00,,---,0.00,VWS V14.01,2014-01-11 15:40:00,
2014-01-11 08:45:00,11.7,7.6,30.51,NNW,330,0.0,2.0,83,0.00,,---,0.00,VWS V14.01,2014-01-11 15:45:00,
2014-01-11 08:50:00,12.5,9.1,30.52,NNW,330,0.0,0.0,86,0.00,,---,0.00,VWS V14.01,2014-01-11 15:50:00,
2014-01-11 08:55:00,13.8,10.6,30.52,NNW,330,3.0,4.0,87,0.00,,---,0.00,VWS V14.01,2014-01-11 15:55:00,
2014-01-11 09:00:00,14.1,10.2,30.52,NNW,330,5.0,5.0,84,0.00,,---,0.00,VWS V14.01,2014-01-11 16:00:00,
2014-01-11 09:05:00,13.1,9.2,30.52,NNW,330,3.0,5.0,84,0.00,,---,0.00,VWS V14.01,2014-01-11 16:05:00,
2014-01-11 09:10:00,13.9,10.2,30.52,NNW,330,2.0,2.0,85,0.00,,---,0.00,VWS V14.01,2014-01-11 16:10:00,
2014-01-11 09:15:00,14.5,11.1,30.52,NNW,330,2.0,2.0,86,0.00,,---,0.00,VWS V14.01,2014-01-11 16:15:00,
2014-01-11 09:20:00,15.1,11.1,30.53,NNW,330,3.0,3.0,84,0.00,,---,0.00,VWS V14.01,2014-01-11 16:20:00,
2014-01-11 09:25:00,14.3,9.8,30.53,NNW,330,3.0,4.0,82,0.00,,---,0.00,VWS V14.01,2014-01-11 16:25:00,
2014-01-11 09:30:00,15.3,11.6,30.53,NNW,330,4.0,4.0,85,0.00,,---,0.00,VWS V14.01,2014-01-11 16:30:00,
2014-01-11 09:36:00,15.6,11.1,30.52,NNW,330,5.0,5.0,82,0.00,,---,0.00,VWS V14.01,2014-01-11 16:36:00,
2014-01-11 09:41:00,16.1,11.6,30.52,NNW,330,2.0,2.0,82,0.00,,---,0.00,VWS V14.01,2014-01-11 16:41:00,
2014-01-11 09:46:00,18.4,13.8,30.52,NNW,330,0.0,0.0,82,0.00,,---,0.00,VWS V14.01,2014-01-11 16:46:00,
2014-01-11 09:51:00,18.3,12.6,30.53,NNW,330,0.0,0.0,78,0.00,,---,0.00,VWS V14.01,2014-01-11 16:51:00,
2014-01-11 09:56:00,16.4,11.0,30.53,NNW,330,0.0,0.0,79,0.00,,---,0.00,VWS V14.01,2014-01-11 16:56:00,
2014-01-11 10:01:00,16.0,11.2,30.53,NNW,330,0.0,0.0,81,0.00,,---,0.00,VWS V14.01,2014-01-11 17:01:00,
2014-01-11 10:06:00,17.2,12.4,30.52,NNW,330,0.0,0.0,81,0.00,,---,0.00,VWS V14.01,2014-01-11 17:06:00,
2014-01-11 10:11:00,18.3,13.2,30.52,NNW,330,0.0,0.0,80,0.00,,---,0.00,VWS V14.01,2014-01-11 17:11:00,
2014-01-11 10:16:00,18.3,12.6,30.52,NNW,330,0.0,0.0,78,0.00,,---,0.00,VWS V14.01,2014-01-11 17:16:00,
2014-01-11 10:21:00,17.2,11.8,30.52,NNW,330,0.0,0.0,79,0.00,,---,0.00,VWS V14.01,2014-01-11 17:21:00,
2014-01-11 10:26:00,17.2,12.1,30.52,NNW,330,0.0,0.0,80,0.00,,---,0.00,VWS V14.01,2014-01-11 17:26:00,
2014-01-11 10:31:00,16.8,12.0,30.52,NNW,330,0.0,1.0,81,0.00,,---,0.00,VWS V14.01,2014-01-11 17:31:00,
2014-01-11 10:36:00,18.6,12.9,30.52,NNW,330,2.0,4.0,78,0.00,,---,0.00,VWS V14.01,2014-01-11 17:36:00,
2014-01-11 10:41:00,18.0,12.9,30.51,NNW,330,0.0,0.0,80,0.00,,---,0.00,VWS V14.01,2014-01-11 17:41:00,
2014-01-11 10:46:00,17.6,12.5,30.51,NNW,330,0.0,0.0,80,0.00,,---,0.00,VWS V14.01,2014-01-11 17:46:00,
2014-01-11 10:51:00,18.4,13.0,30.50,NNW,330,0.0,0.0,79,0.00,,---,0.00,VWS V14.01,2014-01-11 17:51:00,
2014-01-11 10:56:00,18.8,13.4,30.50,NNW,330,0.0,0.0,79,0.00,,---,0.00,VWS V14.01,2014-01-11 17:56:00,
2014-01-11 11:01:00,20.0,14.3,30.49,NNW,330,0.0,0.0,78,0.00,,---,0.00,VWS V14.01,2014-01-11 18:01:00,
2014-01-11 11:06:00,20.5,14.4,30.49,NNW,330,0.0,0.0,77,0.00,,---,0.00,VWS V14.01,2014-01-11 18:06:00,
2014-01-11 11:11:00,21.2,14.8,30.48,NNW,330,0.0,0.0,76,0.00,,---,0.00,VWS V14.01,2014-01-11 18:11:00,
2014-01-11 11:16:00,20.9,14.2,30.48,NNW,330,0.0,0.0,75,0.00,,---,0.00,VWS V14.01,2014-01-11 18:16:00,
2014-01-11 11:21:00,20.8,14.4,30.48,NNW,330,0.0,0.0,76,0.00,,---,0.00,VWS V14.01,2014-01-11 18:21:00,
2014-01-11 11:26:00,19.7,13.1,30.47,NNW,330,0.0,1.0,75,0.00,,---,0.00,VWS V14.01,2014-01-11 18:26:00,
2014-01-11 11:31:00,19.8,13.5,30.47,NNW,330,0.0,0.0,76,0.00,,---,0.00,VWS V14.01,2014-01-11 18:31:00,
2014-01-11 11:36:00,20.6,14.2,30.47,NNW,330,0.0,0.0,76,0.00,,---,0.00,VWS V14.01,2014-01-11 18:36:00,
2014-01-11 11:41:00,20.0,13.7,30.47,NNW,330,0.0,0.0,76,0.00,,---,0.00,VWS V14.01,2014-01-11 18:41:00,
2014-01-11 11:46:00,20.4,13.8,30.46,NNW,330,0.0,0.0,75,0.00,,---,0.00,VWS V14.01,2014-01-11 18:46:00,
2014-01-11 11:51:00,20.6,13.9,30.46,NNW,330,0.0,0.0,75,0.00,,---,0.00,VWS V14.01,2014-01-11 18:51:00,
2014-01-11 11:56:00,21.0,14.6,30.46,NNW,330,0.0,0.0,76,0.00,,---,0.00,VWS V14.01,2014-01-11 18:56:00,
2014-01-11 12:01:00,21.1,14.7,30.45,NNW,330,0.0,0.0,76,0.00,,---,0.00,VWS V14.01,2014-01-11 19:01:00,
2014-01-11 12:06:00,21.2,14.2,30.45,NNW,330,1.0,2.0,74,0.00,,---,0.00,VWS V14.01,2014-01-11 19:06:00,
2014-01-11 12:11:00,20.6,14.2,30.45,NNW,330,0.0,0.0,76,0.00,,---,0.00,VWS V14.01,2014-01-11 19:11:00,
2014-01-11 12:16:00,20.9,14.2,30.44,NNW,330,0.0,0.0,75,0.00,,---,0.00,VWS V14.01,2014-01-11 19:16:00,
2014-01-11 12:21:00,22.1,15.1,30.44,NNW,330,0.0,0.0,74,0.00,,---,0.00,VWS V14.01,2014-01-11 19:21:00,
2014-01-11 12:26:00,22.2,15.2,30.44,NNW,330,0.0,2.0,74,0.00,,---,0.00,VWS V14.01,2014-01-11 19:26:00,
2014-01-11 12:32:00,21.5,14.5,30.43,NNW,330,0.0,0.0,74,0.00,,---,0.00,VWS V14.01,2014-01-11 19:32:00,
2014-01-11 12:37:00,21.5,14.8,30.43,NNW,330,0.0,0.0,75,0.00,,---,0.00,VWS V14.01,2014-01-11 19:37:00,
2014-01-11 12:42:00,21.8,15.1,30.42,NNW,330,0.0,1.0,75,0.00,,---,0.00,VWS V14.01,2014-01-11 19:42:00,
2014-01-11 12:47:00,22.1,15.4,30.42,NNW,330,0.0,0.0,75,0.00,,---,0.00,VWS V14.01,2014-01-11 19:47:00,
2014-01-11 12:52:00,21.7,15.0,30.41,NNW,330,1.0,2.0,75,0.00,,---,0.00,VWS V14.01,2014-01-11 19:52:00,
2014-01-11 12:57:00,21.6,15.2,30.42,NNW,330,1.0,1.0,76,0.00,,---,0.00,VWS V14.01,2014-01-11 19:57:00,
2014-01-11 13:02:00,21.9,15.8,30.42,NNW,330,0.0,1.0,77,0.00,,---,0.00,VWS V14.01,2014-01-11 20:02:00,
2014-01-11 13:07:00,22.1,16.0,30.41,NNW,330,0.0,0.0,77,0.00,,---,0.00,VWS V14.01,2014-01-11 20:07:00,
2014-01-11 13:08:00,22.3,16.2,30.42,NNW,330,0.0,0.0,77,0.00,,---,0.00,VWS V14.01,2014-01-11 20:08:00,
2014-01-11 13:13:00,22.8,16.4,30.41,NNW,330,0.0,0.0,76,0.00,,---,0.00,VWS V14.01,2014-01-11 20:13:00,
2014-01-11 13:18:00,23.0,16.6,30.41,NNW,330,0.0,0.0,76,0.00,,---,0.00,VWS V14.01,2014-01-11 20:18:00,
2014-01-11 13:23:00,24.4,17.3,30.40,NNW,330,0.0,0.0,74,0.00,,---,0.00,VWS V14.01,2014-01-11 20:23:00,
2014-01-11 13:28:00,24.9,17.5,30.40,NNW,330,0.0,0.0,73,0.00,,---,0.00,VWS V14.01,2014-01-11 20:28:00,
2014-01-11 13:33:00,24.2,17.1,30.40,NNW,330,0.0,0.0,74,0.00,,---,0.00,VWS V14.01,2014-01-11 20:33:00,
2014-01-11 13:38:00,24.3,17.2,30.40,NNW,330,0.0,0.0,74,0.00,,---,0.00,VWS V14.01,2014-01-11 20:38:00,
2014-01-11 13:43:00,24.1,17.0,30.39,NNW,330,0.0,0.0,74,0.00,,---,0.00,VWS V14.01,2014-01-11 20:43:00,
2014-01-11 13:48:00,24.4,17.6,30.39,NNW,330,0.0,0.0,75,0.00,,---,0.00,VWS V14.01,2014-01-11 20:48:00,
2014-01-11 13:53:00,25.2,17.8,30.38,NNW,330,0.0,0.0,73,0.00,,---,0.00,VWS V14.01,2014-01-11 20:53:00,
2014-01-11 13:58:00,25.7,17.9,30.38,NNW,330,0.0,0.0,72,0.00,,---,0.00,VWS V14.01,2014-01-11 20:58:00,
2014-01-11 14:03:00,26.0,17.9,30.38,NNW,330,0.0,0.0,71,0.00,,---,0.00,VWS V14.01,2014-01-11 21:03:00,
2014-01-11 14:08:00,25.6,17.8,30.38,NNW,330,0.0,0.0,72,0.00,,---,0.00,VWS V14.01,2014-01-11 21:08:00,
2014-01-11 14:13:00,25.8,18.0,30.37,NNW,330,0.0,0.0,72,0.00,,---,0.00,VWS V14.01,2014-01-11 21:13:00,
2014-01-11 14:18:00,26.2,18.1,30.37,NNW,330,0.0,0.0,71,0.00,,---,0.00,VWS V14.01,2014-01-11 21:18:00,
2014-01-11 14:23:00,25.7,17.9,30.37,NNW,330,0.0,0.0,72,0.00,,---,0.00,VWS V14.01,2014-01-11 21:23:00,
2014-01-11 14:28:00,25.5,17.8,30.36,NNW,330,0.0,0.0,72,0.00,,---,0.00,VWS V14.01,2014-01-11 21:28:00,
2014-01-11 14:33:00,26.0,18.2,30.36,NNW,330,0.0,0.0,72,0.00,,---,0.00,VWS V14.01,2014-01-11 21:33:00,
2014-01-11 14:35:00,25.9,18.1,30.36,NNW,330,0.0,0.0,72,0.00,,---,0.00,VWS V14.01,2014-01-11 21:35:00,
2014-01-11 14:40:00,26.0,17.9,30.36,NNW,330,0.0,0.0,71,0.00,,---,0.00,VWS V14.01,2014-01-11 21:40:00,
2014-01-11 14:45:00,25.1,17.4,30.36,NNW,330,0.0,0.0,72,0.00,,---,0.00,VWS V14.01,2014-01-11 21:45:00,
2014-01-11 14:50:00,25.1,18.3,30.36,NNW,330,2.0,2.0,75,0.00,,---,0.00,VWS V14.01,2014-01-11 21:50:00,
2014-01-11 14:55:00,26.2,18.1,30.36,NNW,330,0.0,0.0,71,0.00,,---,0.00,VWS V14.01,2014-01-11 21:55:00,
2014-01-11 15:00:00,26.7,18.6,30.36,NNW,330,0.0,0.0,71,0.00,,---,0.00,VWS V14.01,2014-01-11 22:00:00,
2014-01-11 15:05:00,25.7,17.6,30.36,NNW,330,3.0,3.0,71,0.00,,---,0.00,VWS V14.01,2014-01-11 22:05:00,
2014-01-11 15:10:00,26.0,18.5,30.36,NNW,330,0.0,0.0,73,0.00,,---,0.00,VWS V14.01,2014-01-11 22:10:00,
2014-01-11 15:15:00,24.3,17.2,30.36,NNW,330,0.0,0.0,74,0.00,,---,0.00,VWS V14.01,2014-01-11 22:15:00,
2014-01-11 15:20:00,25.6,18.5,30.35,NNW,330,1.0,1.0,74,0.00,,---,0.00,VWS V14.01,2014-01-11 22:20:00,
2014-01-11 15:25:00,25.9,18.5,30.35,NNW,330,0.0,0.0,73,0.00,,---,0.00,VWS V14.01,2014-01-11 22:25:00,
2014-01-11 15:30:00,25.8,18.4,30.35,NNW,330,0.0,0.0,73,0.00,,---,0.00,VWS V14.01,2014-01-11 22:30:00,
2014-01-11 15:35:00,25.2,18.1,30.35,NNW,330,0.0,0.0,74,0.00,,---,0.00,VWS V14.01,2014-01-11 22:35:00,
2014-01-11 15:40:00,24.8,17.7,30.35,NNW,330,0.0,0.0,74,0.00,,---,0.00,VWS V14.01,2014-01-11 22:40:00,
2014-01-11 15:45:00,25.0,17.6,30.35,NNW,330,0.0,0.0,73,0.00,,---,0.00,VWS V14.01,2014-01-11 22:45:00,
2014-01-11 15:50:00,23.8,17.4,30.35,NNW,330,0.0,3.0,76,0.00,,---,0.00,VWS V14.01,2014-01-11 22:50:00,
2014-01-11 15:55:00,23.7,17.6,30.34,NNW,330,4.0,4.0,77,0.00,,---,0.00,VWS V14.01,2014-01-11 22:55:00,
2014-01-11 16:00:00,24.5,18.0,30.34,NNW,330,0.0,2.0,76,0.00,,---,0.00,VWS V14.01,2014-01-11 23:00:00,
2014-01-11 16:05:00,24.6,18.1,30.34,NNW,330,4.0,5.0,76,0.00,,---,0.00,VWS V14.01,2014-01-11 23:05:00,
2014-01-11 16:10:00,24.0,17.5,30.34,NNW,330,0.0,0.0,76,0.00,,---,0.00,VWS V14.01,2014-01-11 23:10:00,
2014-01-11 16:15:00,23.1,16.7,30.34,NNW,330,5.0,6.0,76,0.00,,---,0.00,VWS V14.01,2014-01-11 23:15:00,
2014-01-11 16:20:00,23.3,17.2,30.33,NNW,330,3.0,3.0,77,0.00,,---,0.00,VWS V14.01,2014-01-11 23:20:00,
2014-01-11 16:25:00,23.6,17.5,30.33,NNW,330,3.0,4.0,77,0.00,,---,0.00,VWS V14.01,2014-01-11 23:25:00,
2014-01-11 16:30:00,23.6,17.2,30.33,NNW,330,0.0,2.0,76,0.00,,---,0.00,VWS V14.01,2014-01-11 23:30:00,
2014-01-11 16:35:00,23.3,15.6,30.33,NNW,330,0.0,2.0,72,0.00,,---,0.00,VWS V14.01,2014-01-11 23:35:00,
2014-01-11 16:40:00,22.5,15.2,30.33,NNW,330,0.0,0.0,73,0.00,,---,0.00,VWS V14.01,2014-01-11 23:40:00,
2014-01-11 16:45:00,21.6,14.6,30.33,NNW,330,5.0,6.0,74,0.00,,---,0.00,VWS V14.01,2014-01-11 23:45:00,
2014-01-11 16:50:00,20.8,14.7,30.33,NNW,330,7.0,7.0,77,0.00,,---,0.00,VWS V14.01,2014-01-11 23:50:00,
2014-01-11 16:55:00,20.3,15.1,30.33,NNW,330,5.0,6.0,80,0.00,,---,0.00,VWS V14.01,2014-01-11 23:55:00,
2014-01-11 17:00:00,20.8,16.2,30.33,NNW,330,0.0,4.0,82,0.00,,---,0.00,VWS V14.01,2014-01-12 00:00:00,
2014-01-11 17:05:00,20.5,15.3,30.33,NNW,330,0.0,0.0,80,0.00,,---,0.00,VWS V14.01,2014-01-12 00:05:00,
2014-01-11 17:10:00,20.0,14.8,30.33,NNW,330,0.0,0.0,80,0.00,,---,0.00,VWS V14.01,2014-01-12 00:10:00,
2014-01-11 17:15:00,19.8,15.2,30.32,NNW,330,0.0,0.0,82,0.00,,---,0.00,VWS V14.01,2014-01-12 00:15:00,
2014-01-11 17:20:00,19.6,14.7,30.32,NNW,330,4.0,4.0,81,0.00,,---,0.00,VWS V14.01,2014-01-12 00:20:00,
2014-01-11 17:25:00,19.3,14.4,30.32,NNW,330,7.0,7.0,81,0.00,,---,0.00,VWS V14.01,2014-01-12 00:25:00,
2014-01-11 17:31:00,18.3,13.7,30.32,NNW,330,5.0,7.0,82,0.00,,---,0.00,VWS V14.01,2014-01-12 00:31:00,
2014-01-11 17:36:00,18.5,14.5,30.32,NNW,330,2.0,5.0,84,0.00,,---,0.00,VWS V14.01,2014-01-12 00:36:00,
2014-01-11 17:41:00,18.9,15.1,30.31,NNW,330,7.0,8.0,85,0.00,,---,0.00,VWS V14.01,2014-01-12 00:41:00,
2014-01-11 17:46:00,18.3,14.0,30.31,NNW,330,2.0,2.0,83,0.00,,---,0.00,VWS V14.01,2014-01-12 00:46:00,
2014-01-11 17:51:00,18.4,14.6,30.31,NNW,330,4.0,4.0,85,0.00,,---,0.00,VWS V14.01,2014-01-12 00:51:00,
2014-01-11 17:56:00,18.3,14.6,30.31,NNW,330,2.0,2.0,85,0.00,,---,0.00,VWS V14.01,2014-01-12 00:56:00,
2014-01-11 18:01:00,18.5,14.8,30.31,NNW,330,9.0,9.0,85,0.00,,---,0.00,VWS V14.01,2014-01-12 01:01:00,
2014-01-11 18:06:00,18.2,14.2,30.31,NNW,330,0.0,0.0,84,0.00,,---,0.00,VWS V14.01,2014-01-12 01:06:00,
2014-01-11 18:11:00,18.1,14.1,30.30,NNW,330,0.0,0.0,84,0.00,,---,0.00,VWS V14.01,2014-01-12 01:11:00,
2014-01-11 18:16:00,17.7,13.4,30.30,NNW,330,0.0,0.0,83,0.00,,---,0.00,VWS V14.01,2014-01-12 01:16:00,
2014-01-11 18:21:00,17.3,13.0,30.31,NNW,330,0.0,0.0,83,0.00,,---,0.00,VWS V14.01,2014-01-12 01:21:00,
2014-01-11 18:26:00,16.9,12.9,30.30,NNW,330,4.0,5.0,84,0.00,,---,0.00,VWS V14.01,2014-01-12 01:26:00,
2014-01-11 18:31:00,16.4,12.4,30.31,NNW,330,0.0,0.0,84,0.00,,---,0.00,VWS V14.01,2014-01-12 01:31:00,
2014-01-11 18:36:00,15.5,11.5,30.31,NNW,330,4.0,4.0,84,0.00,,---,0.00,VWS V14.01,2014-01-12 01:36:00,
2014-01-11 18:41:00,15.6,12.7,30.32,NNW,330,3.0,3.0,88,0.00,,---,0.00,VWS V14.01,2014-01-12 01:41:00,
2014-01-11 18:46:00,15.9,13.2,30.32,NNW,330,7.0,7.0,89,0.00,,---,0.00,VWS V14.01,2014-01-12 01:46:00,
2014-01-11 18:51:00,16.5,14.1,30.32,NNW,330,1.0,1.0,90,0.00,,---,0.00,VWS V14.01,2014-01-12 01:51:00,
2014-01-11 18:56:00,16.3,13.4,30.31,NNW,330,2.0,2.0,88,0.00,,---,0.00,VWS V14.01,2014-01-12 01:56:00,
2014-01-11 19:01:00,15.8,12.9,30.31,NNW,330,1.0,2.0,88,0.00,,---,0.00,VWS V14.01,2014-01-12 02:01:00,
2014-01-11 19:06:00,14.8,11.4,30.31,NNW,330,5.0,6.0,86,0.00,,---,0.00,VWS V14.01,2014-01-12 02:06:00,
2014-01-11 19:11:00,15.2,12.6,30.31,NNW,330,5.0,6.0,89,0.00,,---,0.00,VWS V14.01,2014-01-12 02:11:00,
2014-01-11 19:16:00,16.7,14.5,30.30,NNW,330,7.0,9.0,91,0.00,,---,0.00,VWS V14.01,2014-01-12 02:16:00,
2014-01-11 19:21:00,16.6,13.7,30.31,NNW,330,5.0,8.0,88,0.00,,---,0.00,VWS V14.01,2014-01-12 02:21:00,
2014-01-11 19:26:00,14.2,10.3,30.31,NNW,330,3.0,4.0,84,0.00,,---,0.00,VWS V14.01,2014-01-12 02:26:00,
2014-01-11 19:31:00,13.5,10.4,30.30,NNW,330,1.0,5.0,87,0.00,,---,0.00,VWS V14.01,2014-01-12 02:31:00,
2014-01-11 19:36:00,13.7,11.1,30.30,NNW,330,0.0,0.0,89,0.00,,---,0.00,VWS V14.01,2014-01-12 02:36:00,
2014-01-11 19:41:00,14.3,12.2,30.30,NNW,330,0.0,0.0,91,0.00,,---,0.00,VWS V14.01,2014-01-12 02:41:00,
2014-01-11 19:46:00,13.8,11.2,30.30,NNW,330,4.0,4.0,89,0.00,,---,0.00,VWS V14.01,2014-01-12 02:46:00,
2014-01-11 19:51:00,13.7,11.3,30.31,NNW,330,0.0,0.0,90,0.00,,---,0.00,VWS V14.01,2014-01-12 02:51:00,
2014-01-11 19:56:00,13.9,11.8,30.31,NNW,330,0.0,0.0,91,0.00,,---,0.00,VWS V14.01,2014-01-12 02:56:00,
2014-01-11 20:01:00,13.6,11.2,30.31,NNW,330,0.0,0.0,90,0.00,,---,0.00,VWS V14.01,2014-01-12 03:01:00,
2014-01-11 20:06:00,13.8,11.4,30.30,NNW,330,9.0,11.0,90,0.00,,---,0.00,VWS V14.01,2014-01-12 03:06:00,
2014-01-11 20:12:00,14.3,12.2,30.30,NNW,330,3.0,3.0,91,0.00,,---,0.00,VWS V14.01,2014-01-12 03:12:00,
2014-01-11 20:17:00,15.2,13.3,30.29,NNW,330,6.0,7.0,92,0.00,,---,0.00,VWS V14.01,2014-01-12 03:17:00,
2014-01-11 20:22:00,15.7,13.8,30.29,NNW,330,5.0,5.0,92,0.00,,---,0.00,VWS V14.01,2014-01-12 03:22:00,
2014-01-11 20:27:00,15.3,13.1,30.29,NNW,330,2.0,3.0,91,0.00,,---,0.00,VWS V14.01,2014-01-12 03:27:00,
2014-01-11 20:32:00,15.2,13.1,30.29,NNW,330,2.0,2.0,91,0.00,,---,0.00,VWS V14.01,2014-01-12 03:32:00,
2014-01-11 20:37:00,15.0,12.6,30.29,NNW,330,0.0,2.0,90,0.00,,---,0.00,VWS V14.01,2014-01-12 03:37:00,
2014-01-11 20:42:00,14.1,11.2,30.28,NNW,330,1.0,2.0,88,0.00,,---,0.00,VWS V14.01,2014-01-12 03:42:00,
2014-01-11 20:47:00,13.1,10.2,30.28,NNW,330,0.0,0.0,88,0.00,,---,0.00,VWS V14.01,2014-01-12 03:47:00,
2014-01-11 20:52:00,12.7,9.8,30.28,NNW,330,0.0,2.0,88,0.00,,---,0.00,VWS V14.01,2014-01-12 03:52:00,
2014-01-11 20:57:00,13.2,10.8,30.28,NNW,330,1.0,4.0,90,0.00,,---,0.00,VWS V14.01,2014-01-12 03:57:00,
2014-01-11 21:02:00,13.1,10.7,30.28,NNW,330,2.0,3.0,90,0.00,,---,0.00,VWS V14.01,2014-01-12 04:02:00,
2014-01-11 21:07:00,12.6,10.0,30.28,NNW,330,1.0,1.0,89,0.00,,---,0.00,VWS V14.01,2014-01-12 04:07:00,
2014-01-11 21:12:00,12.0,9.4,30.29,NNW,330,2.0,2.0,89,0.00,,---,0.00,VWS V14.01,2014-01-12 04:12:00,
2014-01-11 21:17:00,12.1,9.7,30.29,NNW,330,0.0,0.0,90,0.00,,---,0.00,VWS V14.01,2014-01-12 04:17:00,
2014-01-11 21:22:00,12.1,9.7,30.29,NNW,330,0.0,0.0,90,0.00,,---,0.00,VWS V14.01,2014-01-12 04:22:00,
2014-01-11 21:27:00,12.0,9.6,30.29,NNW,330,0.0,0.0,90,0.00,,---,0.00,VWS V14.01,2014-01-12 04:27:00,
2014-01-11 21:32:00,12.0,9.6,30.29,NNW,330,2.0,2.0,90,0.00,,---,0.00,VWS V14.01,2014-01-12 04:32:00,
2014-01-11 21:37:00,11.9,9.5,30.29,NNW,330,0.0,0.0,90,0.00,,---,0.00,VWS V14.01,2014-01-12 04:37:00,
2014-01-11 21:42:00,11.9,9.5,30.28,NNW,330,2.0,3.0,90,0.00,,---,0.00,VWS V14.01,2014-01-12 04:42:00,
2014-01-11 21:47:00,12.2,10.1,30.28,NNW,330,0.0,0.0,91,0.00,,---,0.00,VWS V14.01,2014-01-12 04:47:00,
2014-01-11 21:52:00,12.6,10.5,30.27,NNW,330,0.0,0.0,91,0.00,,---,0.00,VWS V14.01,2014-01-12 04:52:00,
2014-01-11 21:57:00,12.6,10.5,30.27,NNW,330,1.0,1.0,91,0.00,,---,0.00,VWS V14.01,2014-01-12 04:57:00,
2014-01-11 22:01:00,12.6,10.5,30.27,NNW,330,2.0,2.0,91,0.00,,---,0.00,VWS V14.01,2014-01-12 05:01:00,
2014-01-11 22:04:00,13.0,11.1,30.28,NNW,330,0.0,1.0,92,0.00,,---,0.00,VWS V14.01,2014-01-12 05:04:00,
2014-01-11 22:09:00,13.5,11.6,30.27,NNW,330,0.0,0.0,92,0.00,,---,0.00,VWS V14.01,2014-01-12 05:09:00,
2014-01-11 22:14:00,13.9,12.0,30.27,NNW,330,0.0,0.0,92,0.00,,---,0.00,VWS V14.01,2014-01-12 05:14:00,
2014-01-11 22:19:00,13.8,11.9,30.27,NNW,330,0.0,0.0,92,0.00,,---,0.00,VWS V14.01,2014-01-12 05:19:00,
2014-01-11 22:24:00,12.8,10.4,30.27,NNW,330,3.0,3.0,90,0.00,,---,0.00,VWS V14.01,2014-01-12 05:24:00,
2014-01-11 22:29:00,12.2,9.8,30.26,NNW,330,8.0,9.0,90,0.00,,---,0.00,VWS V14.01,2014-01-12 05:29:00,
2014-01-11 22:34:00,12.9,10.8,30.26,NNW,330,10.0,10.0,91,0.00,,---,0.00,VWS V14.01,2014-01-12 05:34:00,
2014-01-11 22:39:00,13.1,11.0,30.26,NNW,330,3.0,4.0,91,0.00,,---,0.00,VWS V14.01,2014-01-12 05:39:00,
2014-01-11 22:44:00,13.2,11.1,30.25,NNW,330,2.0,3.0,91,0.00,,---,0.00,VWS V14.01,2014-01-12 05:44:00,
2014-01-11 22:49:00,13.7,11.8,30.25,NNW,330,3.0,3.0,92,0.00,,---,0.00,VWS V14.01,2014-01-12 05:49:00,
2014-01-11 22:54:00,13.6,11.5,30.24,NNW,330,0.0,0.0,91,0.00,,---,0.00,VWS V14.01,2014-01-12 05:54:00,
2014-01-11 22:59:00,13.5,11.4,30.24,NNW,330,0.0,0.0,91,0.00,,---,0.00,VWS V14.01,2014-01-12 05:59:00,
2014-01-11 23:03:00,12.5,9.6,30.24,NNW,330,3.0,5.0,88,0.00,,---,0.00,VWS V14.01,2014-01-12 06:03:00,
2014-01-11 23:08:00,11.7,9.1,30.23,NNW,330,3.0,4.0,89,0.00,,---,0.00,VWS V14.01,2014-01-12 06:08:00,
2014-01-11 23:13:00,12.2,10.1,30.24,NNW,330,1.0,4.0,91,0.00,,---,0.00,VWS V14.01,2014-01-12 06:13:00,
2014-01-11 23:18:00,12.1,9.7,30.23,NNW,330,0.0,1.0,90,0.00,,---,0.00,VWS V14.01,2014-01-12 06:18:00,
2014-01-11 23:23:00,12.2,10.1,30.23,NNW,330,2.0,3.0,91,0.00,,---,0.00,VWS V14.01,2014-01-12 06:23:00,
2014-01-11 23:28:00,13.0,11.1,30.22,NNW,330,0.0,0.0,92,0.00,,---,0.00,VWS V14.01,2014-01-12 06:28:00,
2014-01-11 23:33:00,13.4,11.5,30.21,NNW,330,0.0,0.0,92,0.00,,---,0.00,VWS V14.01,2014-01-12 06:33:00,
2014-01-11 23:38:00,13.4,11.5,30.21,NNW,330,0.0,1.0,92,0.00,,---,0.00,VWS V14.01,2014-01-12 06:38:00,
2014-01-11 23:43:00,12.6,10.2,30.20,NNW,330,1.0,3.0,90,0.00,,---,0.00,VWS V14.01,2014-01-12 06:43:00,
2014-01-11 23:48:00,12.4,10.0,30.20,NNW,330,3.0,4.0,90,0.00,,---,0.00,VWS V14.01,2014-01-12 06:48:00,
2014-01-11 23:53:00,13.0,11.1,30.19,NNW,330,3.0,3.0,92,0.00,,---,0.00,VWS V14.01,2014-01-12 06:53:00,
2014-01-11 23:58:00,13.5,11.6,30.19,NNW,330,0.0,0.0,92,0.00,,---,0.00,VWS V14.01,2014-01-12 06:58:00,